Time;durP1;ratioP1;P1;durP2;ratioP2;P2;SDS_P1;SDS_P2;PMS_P1;PMS_P2;Temp;Humidity;BMP_temperature;BMP_pressure;BME280_temperature;BME280_humidity;BME280_pressure;Samples;Min_cycle;Max_cycle;Signal;HPM_P1;HPM_P2
2021/01/23 00:00:53;;;;;;;1.70;1.60;;;0.20;99.90;;;;;;5111821;28;20599;-62
2021/01/23 00:03:19;;;;;;;1.50;1.38;;;0.20;99.90;;;;;;5098359;28;20111;-65
2021/01/23 00:05:45;;;;;;;1.90;1.63;;;0.20;99.90;;;;;;5109689;28;20581;-62
2021/01/23 00:08:11;;;;;;;2.70;1.60;;;0.30;99.90;;;;;;5092971;28;20052;-62
2021/01/23 00:10:37;;;;;;;2.80;1.90;;;0.20;99.90;;;;;;5094888;28;20550;-62
2021/01/23 00:13:03;;;;;;;1.90;1.70;;;0.20;99.90;;;;;;5092931;28;20024;-62
2021/01/23 00:15:30;;;;;;;1.70;1.60;;;0.20;99.90;;;;;;5092313;28;20059;-62
2021/01/23 00:17:55;;;;;;;2.92;2.00;;;0.20;99.90;;;;;;5109490;28;20110;-63
2021/01/23 00:20:21;;;;;;;2.13;1.92;;;0.20;99.90;;;;;;5092048;28;20524;-66
2021/01/23 00:22:47;;;;;;;2.50;2.10;;;0.30;99.90;;;;;;5094523;28;20125;-63
2021/01/23 00:25:13;;;;;;;2.97;2.30;;;0.30;99.90;;;;;;5101600;28;20042;-63
2021/01/23 00:27:39;;;;;;;2.67;2.35;;;0.30;99.90;;;;;;5111143;28;20094;-64
2021/01/23 00:30:06;;;;;;;2.53;2.17;;;0.30;99.90;;;;;;5096080;28;20030;-64
2021/01/23 00:32:32;;;;;;;3.30;2.50;;;0.30;99.90;;;;;;5099809;28;20382;-64
2021/01/23 00:34:58;;;;;;;4.07;3.05;;;0.30;99.90;;;;;;5101079;28;20035;-65
2021/01/23 00:37:23;;;;;;;5.50;3.70;;;0.30;99.90;;;;;;5098586;28;20030;-64
2021/01/23 00:39:49;;;;;;;4.13;3.38;;;0.30;99.90;;;;;;5105705;28;20027;-64
2021/01/23 00:42:14;;;;;;;5.55;3.90;;;0.30;99.90;;;;;;5105271;28;20468;-63
2021/01/23 00:44:40;;;;;;;6.05;4.43;;;0.30;99.90;;;;;;5094005;28;20908;-65
2021/01/23 00:47:06;;;;;;;6.97;4.68;;;0.40;99.90;;;;;;5094016;28;20080;-63
2021/01/23 00:49:31;;;;;;;6.88;4.88;;;0.40;99.90;;;;;;5104435;28;20023;-63
2021/01/23 00:51:57;;;;;;;7.05;4.80;;;0.40;99.90;;;;;;5096269;28;20062;-64
2021/01/23 00:54:23;;;;;;;9.07;5.43;;;0.40;99.90;;;;;;5103507;28;20050;-64
2021/01/23 00:56:48;;;;;;;7.78;5.70;;;0.40;99.90;;;;;;5096123;28;20024;-64
2021/01/23 00:59:14;;;;;;;6.90;5.07;;;0.40;99.90;;;;;;5091633;28;20407;-64
2021/01/23 01:01:40;;;;;;;7.65;5.75;;;0.50;99.90;;;;;;5091242;28;20028;-63
2021/01/23 01:04:05;;;;;;;7.38;5.47;;;0.50;99.90;;;;;;5092684;28;20028;-63
2021/01/23 01:06:31;;;;;;;10.43;6.47;;;0.50;99.90;;;;;;5101015;28;20026;-64
2021/01/23 01:08:56;;;;;;;10.63;6.22;;;0.50;99.90;;;;;;5111735;28;20038;-63
2021/01/23 01:11:22;;;;;;;8.35;5.45;;;0.50;99.90;;;;;;5111110;28;20479;-65
2021/01/23 01:13:48;;;;;;;8.45;5.55;;;0.60;99.90;;;;;;5092566;28;20504;-64
2021/01/23 01:16:13;;;;;;;8.88;5.75;;;0.60;99.90;;;;;;5111620;28;20430;-64
2021/01/23 01:18:39;;;;;;;11.23;6.18;;;0.60;99.90;;;;;;5102766;28;20174;-63
2021/01/23 01:21:06;;;;;;;10.20;6.93;;;0.60;99.90;;;;;;5092273;28;20088;-63
2021/01/23 01:23:31;;;;;;;13.50;8.75;;;0.60;99.90;;;;;;5090801;28;20028;-63
2021/01/23 01:25:57;;;;;;;13.32;9.10;;;0.60;99.90;;;;;;5089266;28;20081;-66
2021/01/23 01:28:23;;;;;;;15.85;9.85;;;0.60;99.90;;;;;;5098125;28;20056;-66
2021/01/23 01:30:48;;;;;;;16.73;9.00;;;0.50;99.90;;;;;;5096342;28;20023;-63
2021/01/23 01:33:14;;;;;;;14.48;9.65;;;0.60;99.90;;;;;;5103728;28;20135;-63
2021/01/23 01:35:39;;;;;;;13.38;9.80;;;0.60;99.90;;;;;;5091752;28;20028;-64
2021/01/23 01:38:07;;;;;;;13.88;10.32;;;0.60;99.90;;;;;;5103244;28;20027;-63
2021/01/23 01:40:33;;;;;;;15.82;10.85;;;0.60;99.90;;;;;;5102262;28;20047;-64
2021/01/23 01:42:58;;;;;;;15.13;10.52;;;0.50;99.90;;;;;;5108249;28;20078;-64
2021/01/23 01:45:24;;;;;;;15.65;10.73;;;0.50;99.90;;;;;;5092127;28;20077;-63
2021/01/23 01:47:50;;;;;;;16.35;11.05;;;0.50;99.90;;;;;;5091472;28;20028;-62
2021/01/23 01:50:16;;;;;;;17.05;11.48;;;0.50;99.90;;;;;;5099925;28;20024;-62
2021/01/23 01:52:43;;;;;;;15.43;10.43;;;0.50;99.90;;;;;;5091127;28;20655;-63
2021/01/23 01:55:13;;;;;;;12.77;9.32;;;0.50;99.90;;;;;;5092776;28;20077;-62
2021/01/23 01:57:39;;;;;;;12.30;8.95;;;0.50;99.90;;;;;;5097318;28;20028;-63
2021/01/23 02:00:08;;;;;;;10.82;8.02;;;0.50;99.90;;;;;;5092375;28;20035;-62
2021/01/23 02:02:54;;;;;;;11.20;8.65;;;0.50;99.90;;;;;;5102151;28;20086;-62
2021/01/23 02:05:56;;;;;;;10.60;6.80;;;0.50;99.90;;;;;;5095607;28;20043;-64
2021/01/23 02:08:52;;;;;;;7.60;5.65;;;0.50;99.90;;;;;;5102238;28;20035;-64
2021/01/23 02:11:27;;;;;;;7.03;5.40;;;0.60;99.90;;;;;;5090176;28;20346;-62
2021/01/23 02:14:24;;;;;;;8.30;5.72;;;0.60;99.90;;;;;;5095962;28;20545;-64
2021/01/23 02:16:52;;;;;;;7.57;5.40;;;0.60;99.90;;;;;;5098683;28;20024;-63
2021/01/23 02:19:27;;;;;;;6.95;5.13;;;0.60;99.90;;;;;;5113216;28;20035;-63
2021/01/23 02:22:08;;;;;;;5.32;4.43;;;0.60;99.90;;;;;;5106404;28;20024;-64
2021/01/23 02:24:34;;;;;;;6.47;4.50;;;0.70;99.90;;;;;;5095327;28;20053;-63
2021/01/23 02:27:37;;;;;;;4.82;3.95;;;0.70;99.90;;;;;;5104433;28;20055;-63
2021/01/23 02:30:17;;;;;;;4.93;4.03;;;0.70;99.90;;;;;;5093583;28;20076;-62
2021/01/23 02:32:49;;;;;;;6.40;4.45;;;0.60;99.90;;;;;;5102097;28;20039;-63
2021/01/23 02:35:17;;;;;;;6.07;4.53;;;0.70;99.90;;;;;;5108284;28;20412;-62
2021/01/23 02:37:44;;;;;;;5.43;4.28;;;0.70;99.90;;;;;;5114176;28;20592;-63
2021/01/23 02:40:11;;;;;;;7.40;5.18;;;0.70;99.90;;;;;;5104935;28;20492;-63
2021/01/23 02:42:37;;;;;;;5.90;4.63;;;0.60;99.90;;;;;;5093549;28;20489;-63
2021/01/23 02:45:12;;;;;;;5.10;3.90;;;0.70;99.90;;;;;;5104906;28;20388;-62
2021/01/23 02:47:38;;;;;;;6.43;4.22;;;0.70;99.90;;;;;;5110690;28;20411;-62
2021/01/23 02:50:06;;;;;;;7.28;4.25;;;0.60;99.90;;;;;;5094510;28;20489;-63
2021/01/23 02:53:11;;;;;;;5.85;3.78;;;0.60;99.90;;;;;;5095366;28;20080;-64
2021/01/23 02:55:41;;;;;;;5.20;3.30;;;0.60;99.90;;;;;;5092489;28;20080;-62
2021/01/23 02:58:09;;;;;;;4.95;3.40;;;0.70;99.90;;;;;;5113332;28;20062;-63
2021/01/23 03:00:36;;;;;;;4.32;2.53;;;0.70;99.90;;;;;;5113468;28;20446;-62
2021/01/23 03:03:03;;;;;;;2.75;2.28;;;0.70;99.90;;;;;;5102868;28;20100;-64
2021/01/23 03:05:34;;;;;;;2.58;2.10;;;0.80;99.90;;;;;;5093488;28;20059;-67
2021/01/23 03:08:00;;;;;;;2.42;2.22;;;0.80;99.90;;;;;;5089993;28;20024;-63
2021/01/23 03:10:40;;;;;;;2.45;2.22;;;0.80;99.90;;;;;;5093298;28;20028;-64
2021/01/23 03:13:07;;;;;;;3.28;2.72;;;0.80;99.90;;;;;;5094533;28;20054;-63
2021/01/23 03:15:34;;;;;;;3.13;2.22;;;0.70;99.90;;;;;;5094102;28;20020;-63
2021/01/23 03:18:00;;;;;;;2.47;2.15;;;0.70;99.90;;;;;;5090460;28;20477;-64
2021/01/23 03:20:27;;;;;;;2.92;2.40;;;0.80;99.90;;;;;;5092817;28;20477;-65
2021/01/23 03:22:53;;;;;;;3.40;2.60;;;0.70;99.90;;;;;;5094065;28;20036;-63
2021/01/23 03:25:19;;;;;;;2.78;2.45;;;0.90;99.90;;;;;;5090658;28;20028;-63
2021/01/23 03:27:45;;;;;;;2.83;2.35;;;0.80;99.90;;;;;;5084295;28;20085;-62
2021/01/23 03:30:11;;;;;;;2.55;2.30;;;0.80;99.90;;;;;;5094555;28;20460;-64
2021/01/23 03:32:37;;;;;;;2.88;2.60;;;0.80;99.90;;;;;;5090689;28;20084;-64
2021/01/23 03:35:05;;;;;;;3.30;2.60;;;0.90;99.90;;;;;;5094285;28;20028;-63
2021/01/23 03:37:32;;;;;;;3.13;2.70;;;0.80;99.90;;;;;;5092599;28;20062;-63
2021/01/23 03:39:58;;;;;;;2.75;2.55;;;0.80;99.90;;;;;;5094210;28;20028;-64
2021/01/23 03:42:23;;;;;;;4.40;2.72;;;0.80;99.90;;;;;;5092687;28;20118;-66
2021/01/23 03:44:49;;;;;;;3.53;2.50;;;0.80;99.90;;;;;;5093041;28;20020;-63
2021/01/23 03:47:14;;;;;;;4.10;2.80;;;0.80;99.90;;;;;;5096311;28;20032;-63
2021/01/23 03:49:41;;;;;;;4.15;3.13;;;0.90;99.90;;;;;;5092067;28;20024;-63
2021/01/23 03:52:06;;;;;;;3.85;3.00;;;0.90;99.90;;;;;;5092321;28;20035;-63
2021/01/23 03:54:33;;;;;;;3.20;2.70;;;0.90;99.90;;;;;;5092371;28;20024;-64
2021/01/23 03:56:58;;;;;;;5.25;3.28;;;1.00;99.90;;;;;;5097003;28;20063;-64
2021/01/23 03:59:24;;;;;;;4.93;2.78;;;1.00;99.90;;;;;;5094637;28;20051;-66
2021/01/23 04:01:50;;;;;;;5.72;3.00;;;1.10;99.90;;;;;;5092601;28;20042;-64
2021/01/23 04:04:15;;;;;;;4.50;3.38;;;1.00;99.90;;;;;;5093954;28;20469;-64
2021/01/23 04:06:42;;;;;;;4.57;2.92;;;1.10;99.90;;;;;;5092191;28;20103;-63
2021/01/23 04:09:08;;;;;;;5.30;2.85;;;1.10;99.90;;;;;;5092485;28;20059;-65
2021/01/23 04:11:34;;;;;;;4.32;3.00;;;1.10;99.90;;;;;;5091604;28;20441;-64
2021/01/23 04:13:59;;;;;;;4.68;2.80;;;1.10;99.90;;;;;;5091773;28;20028;-64
2021/01/23 04:16:25;;;;;;;5.90;2.63;;;1.10;99.90;;;;;;5092513;28;20522;-66
2021/01/23 04:18:51;;;;;;;4.75;3.13;;;1.10;99.90;;;;;;5091877;28;20388;-64
2021/01/23 04:21:16;;;;;;;3.67;2.45;;;1.20;99.90;;;;;;5091430;28;20054;-63
2021/01/23 04:23:44;;;;;;;5.32;2.88;;;1.20;99.90;;;;;;5090510;28;20200;-64
2021/01/23 04:26:11;;;;;;;5.03;2.75;;;1.20;99.90;;;;;;5105058;28;20031;-63
2021/01/23 04:28:36;;;;;;;5.15;2.95;;;1.20;99.90;;;;;;5096029;28;20346;-63
2021/01/23 04:31:03;;;;;;;3.58;3.03;;;1.20;99.90;;;;;;5105371;28;20031;-63
2021/01/23 04:33:28;;;;;;;6.90;3.03;;;1.20;99.90;;;;;;5107277;28;20130;-63
2021/01/23 04:35:54;;;;;;;6.50;3.13;;;1.10;99.90;;;;;;5092854;28;20466;-62
2021/01/23 04:38:20;;;;;;;5.18;2.70;;;1.10;99.90;;;;;;5092871;28;20081;-63
2021/01/23 04:40:45;;;;;;;4.60;2.70;;;1.10;99.90;;;;;;5092497;28;20757;-62
2021/01/23 04:43:11;;;;;;;4.85;2.78;;;1.10;99.90;;;;;;5099585;28;20035;-63
2021/01/23 04:45:37;;;;;;;4.22;3.35;;;1.10;99.90;;;;;;5110552;28;20030;-62
2021/01/23 04:48:03;;;;;;;5.05;3.25;;;1.10;99.90;;;;;;5092772;28;20508;-63
2021/01/23 04:50:28;;;;;;;7.30;3.05;;;1.10;99.90;;;;;;5092060;28;20032;-63
2021/01/23 04:52:54;;;;;;;3.50;2.58;;;1.10;99.90;;;;;;5109015;28;20388;-62
2021/01/23 04:55:20;;;;;;;5.72;2.80;;;1.10;99.90;;;;;;5092737;28;20059;-63
2021/01/23 04:57:45;;;;;;;4.13;2.90;;;1.00;99.90;;;;;;5091753;28;20116;-62
2021/01/23 05:00:12;;;;;;;4.47;2.60;;;1.00;99.90;;;;;;5110357;28;20036;-62
2021/01/23 05:02:38;;;;;;;7.70;3.00;;;1.00;99.90;;;;;;5111526;28;20040;-63
2021/01/23 05:05:06;;;;;;;4.07;2.50;;;1.00;99.90;;;;;;5103819;28;20031;-62
2021/01/23 05:07:35;;;;;;;4.50;2.65;;;1.00;99.90;;;;;;5082731;28;20032;-63
2021/01/23 05:10:28;;;;;;;4.10;2.70;;;1.00;99.90;;;;;;5091148;28;20028;-62
2021/01/23 05:12:55;;;;;;;4.47;2.60;;;1.00;99.90;;;;;;5092614;28;20028;-64
2021/01/23 05:15:31;;;;;;;7.25;2.60;;;1.00;99.90;;;;;;5110813;28;20407;-62
2021/01/23 05:18:06;;;;;;;5.30;2.22;;;1.00;99.90;;;;;;5103729;28;20020;-62
2021/01/23 05:20:35;;;;;;;5.00;2.10;;;1.00;99.90;;;;;;5111080;28;20027;-62
2021/01/23 05:23:03;;;;;;;5.43;3.22;;;1.00;99.90;;;;;;5103239;28;20028;-62
2021/01/23 05:25:31;;;;;;;5.65;2.60;;;1.00;99.90;;;;;;5111183;28;20019;-62
2021/01/23 05:27:57;;;;;;;5.93;2.53;;;1.00;99.90;;;;;;5111703;28;20047;-62
2021/01/23 05:30:24;;;;;;;2.58;1.50;;;1.00;99.90;;;;;;5112224;28;20035;-62
2021/01/23 05:33:10;;;;;;;3.95;1.90;;;1.10;99.90;;;;;;5111062;28;20055;-62
2021/01/23 05:35:37;;;;;;;3.10;2.08;;;1.10;99.90;;;;;;5084974;28;20039;-63
2021/01/23 05:38:27;;;;;;;6.70;2.50;;;1.10;99.90;;;;;;5091650;28;20104;-62
2021/01/23 05:41:08;;;;;;;3.90;2.15;;;1.20;99.90;;;;;;5094602;28;20052;-62
2021/01/23 05:43:41;;;;;;;5.05;2.20;;;1.10;99.90;;;;;;5084471;28;20028;-62
2021/01/23 05:46:18;;;;;;;4.07;2.70;;;1.10;99.90;;;;;;5098898;28;20103;-64
2021/01/23 05:48:48;;;;;;;6.78;3.10;;;1.10;99.90;;;;;;5084520;28;20035;-62
2021/01/23 05:51:14;;;;;;;;;;;1.00;99.90;;;;;;5110349;28;20035;-62
2021/01/23 05:53:41;;;;;;;2.50;2.30;;;1.00;99.90;;;;;;5101464;28;19914;-62
2021/01/23 05:56:07;;;;;;;5.40;2.85;;;1.00;99.90;;;;;;5100844;28;20036;-62
2021/01/23 05:58:35;;;;;;;4.32;2.50;;;1.00;99.90;;;;;;5101998;28;20039;-63
2021/01/23 06:01:22;;;;;;;4.30;3.10;;;1.00;99.90;;;;;;5093090;28;20040;-63
2021/01/23 06:03:51;;;;;;;8.18;3.72;;;0.90;99.90;;;;;;5098443;28;20027;-63
2021/01/23 06:06:16;;;;;;;5.10;2.85;;;0.90;99.90;;;;;;5100742;28;20081;-62
2021/01/23 06:08:53;;;;;;;4.30;2.45;;;0.90;99.90;;;;;;5090684;28;20024;-62
2021/01/23 06:11:18;;;;;;;4.18;2.53;;;0.80;99.90;;;;;;5108145;28;20028;-62
2021/01/23 06:13:51;;;;;;;5.32;3.40;;;0.80;99.90;;;;;;5090597;28;20032;-63
2021/01/23 06:16:32;;;;;;;3.33;2.15;;;0.70;99.90;;;;;;5099977;28;20119;-62
2021/01/23 06:19:17;;;;;;;4.63;3.40;;;0.70;99.90;;;;;;5097665;28;20035;-63
2021/01/23 06:21:43;;;;;;;5.10;2.70;;;0.70;99.90;;;;;;5108764;28;20051;-62
2021/01/23 06:24:13;;;;;;;7.85;2.97;;;0.60;99.90;;;;;;5091417;28;20040;-62
2021/01/23 06:26:54;;;;;;;6.70;3.47;;;0.60;99.90;;;;;;5102952;28;20047;-63
2021/01/23 06:29:44;;;;;;;5.93;3.08;;;0.60;99.90;;;;;;5106637;28;20066;-62
2021/01/23 06:32:13;;;;;;;5.20;3.13;;;0.70;99.90;;;;;;5089789;28;20081;-62
2021/01/23 06:34:47;;;;;;;4.22;3.28;;;0.70;99.90;;;;;;5095266;28;20024;-62
2021/01/23 06:37:39;;;;;;;6.45;3.58;;;0.70;99.90;;;;;;5085959;28;20034;-62
2021/01/23 06:40:06;;;;;;;5.88;3.53;;;0.70;99.90;;;;;;5092140;28;20028;-63
2021/01/23 06:42:38;;;;;;;4.80;3.85;;;0.70;99.90;;;;;;5098745;28;20032;-63
2021/01/23 06:45:14;;;;;;;5.68;3.30;;;0.70;99.90;;;;;;5107069;28;20054;-62
2021/01/23 06:47:48;;;;;;;7.22;3.60;;;0.70;99.90;;;;;;5088538;28;20385;-62
2021/01/23 06:50:31;;;;;;;5.75;3.65;;;0.70;99.90;;;;;;5108906;28;20117;-62
2021/01/23 06:52:57;;;;;;;7.85;3.90;;;0.80;99.90;;;;;;5094868;28;20047;-62
2021/01/23 06:55:48;;;;;;;9.27;3.13;;;0.80;99.90;;;;;;5097458;28;20036;-62
2021/01/23 06:58:21;;;;;;;4.50;3.25;;;0.90;99.90;;;;;;5114469;28;20527;-62
2021/01/23 07:00:51;;;;;;;3.38;3.08;;;0.90;99.90;;;;;;5101228;28;20598;-62
2021/01/23 07:03:17;;;;;;;3.92;2.83;;;1.00;99.90;;;;;;5110913;28;20405;-62
2021/01/23 07:05:48;;;;;;;3.33;2.60;;;1.00;99.90;;;;;;5104493;28;20024;-63
2021/01/23 07:08:28;;;;;;;3.15;2.70;;;1.00;99.90;;;;;;5110302;28;20020;-62
2021/01/23 07:11:05;;;;;;;3.53;2.70;;;1.00;99.90;;;;;;5095449;28;20024;-62
2021/01/23 07:13:31;;;;;;;3.75;3.03;;;1.10;99.90;;;;;;5104625;28;20036;-64
2021/01/23 07:15:56;;;;;;;15.07;3.08;;;1.10;99.90;;;;;;5111111;28;20047;-63
2021/01/23 07:18:22;;;;;;;4.05;2.80;;;1.10;99.90;;;;;;5114096;28;20051;-62
2021/01/23 07:20:48;;;;;;;4.53;3.03;;;1.10;99.90;;;;;;5104695;28;20047;-62
2021/01/23 07:23:15;;;;;;;5.07;3.40;;;1.10;99.90;;;;;;5114663;28;20028;-63
2021/01/23 07:25:40;;;;;;;3.95;2.90;;;1.00;99.90;;;;;;5106518;28;20012;-62
2021/01/23 07:28:06;;;;;;;4.35;3.13;;;1.10;99.90;;;;;;5104407;28;20487;-62
2021/01/23 07:30:32;;;;;;;4.63;3.20;;;1.00;99.90;;;;;;5113236;28;20028;-65
2021/01/23 07:32:57;;;;;;;4.07;3.28;;;1.10;99.90;;;;;;5096108;28;20067;-62
2021/01/23 07:35:23;;;;;;;6.45;3.03;;;1.00;99.90;;;;;;5093674;28;20522;-63
2021/01/23 07:37:54;;;;;;;6.40;3.65;;;1.00;99.90;;;;;;5093162;28;20036;-64
2021/01/23 07:40:29;;;;;;;3.40;2.88;;;1.00;99.90;;;;;;5101292;28;20031;-63
2021/01/23 07:43:01;;;;;;;4.97;3.13;;;1.00;99.90;;;;;;5105626;28;20035;-63
2021/01/23 07:45:27;;;;;;;5.80;3.92;;;1.10;99.90;;;;;;5104651;28;20028;-64
2021/01/23 07:47:55;;;;;;;4.32;3.20;;;1.10;99.90;;;;;;5083491;28;20035;-63
2021/01/23 07:50:21;;;;;;;4.25;3.20;;;1.20;99.90;;;;;;5093677;28;20024;-64
2021/01/23 07:52:47;;;;;;;9.05;3.20;;;1.20;99.90;;;;;;5095068;28;20060;-63
2021/01/23 07:55:13;;;;;;;6.05;3.60;;;1.30;99.90;;;;;;5095338;28;20537;-63
2021/01/23 07:57:39;;;;;;;6.47;3.50;;;1.30;99.90;;;;;;5093189;28;20028;-62
2021/01/23 08:00:07;;;;;;;4.22;3.58;;;1.30;99.90;;;;;;5094587;28;20023;-62
2021/01/23 08:02:52;;;;;;;4.20;3.33;;;1.30;99.90;;;;;;5091380;28;20077;-63
2021/01/23 08:05:19;;;;;;;3.97;3.20;;;1.30;99.90;;;;;;5093450;28;20039;-63
2021/01/23 08:07:45;;;;;;;5.32;3.83;;;1.40;99.90;;;;;;5094391;28;20047;-63
2021/01/23 08:10:16;;;;;;;6.00;3.65;;;1.40;99.90;;;;;;5094193;28;20032;-64
2021/01/23 08:12:51;;;;;;;4.60;3.75;;;1.40;99.90;;;;;;5095709;28;20043;-64
2021/01/23 08:15:27;;;;;;;4.68;3.40;;;1.50;99.90;;;;;;5094102;28;20069;-63
2021/01/23 08:17:54;;;;;;;5.30;3.47;;;1.50;99.90;;;;;;5089751;28;20020;-65
2021/01/23 08:20:39;;;;;;;9.65;4.53;;;1.60;99.90;;;;;;5101835;28;20364;-65
2021/01/23 08:23:09;;;;;;;5.53;3.88;;;1.60;99.90;;;;;;5085204;28;20047;-63
2021/01/23 08:25:48;;;;;;;6.97;4.72;;;1.70;99.90;;;;;;5091899;28;20110;-65
2021/01/23 08:28:17;;;;;;;7.03;4.05;;;1.70;99.90;;;;;;5092156;28;20508;-64
2021/01/23 08:30:43;;;;;;;5.75;3.17;;;1.70;99.90;;;;;;5093016;28;20029;-63
2021/01/23 08:33:10;;;;;;;5.03;3.63;;;1.80;99.90;;;;;;5095162;28;20185;-64
2021/01/23 08:35:38;;;;;;;7.03;3.85;;;1.80;99.90;;;;;;5092829;28;20028;-64
2021/01/23 08:38:06;;;;;;;5.32;3.63;;;1.80;99.90;;;;;;5092753;28;20404;-61
2021/01/23 08:40:32;;;;;;;5.18;3.42;;;1.80;99.90;;;;;;5094866;28;20027;-65
2021/01/23 08:42:58;;;;;;;5.05;3.55;;;1.90;99.90;;;;;;5094101;28;20036;-64
2021/01/23 08:45:25;;;;;;;7.30;3.35;;;1.90;99.90;;;;;;5092595;28;20023;-64
2021/01/23 08:47:52;;;;;;;8.93;3.33;;;2.00;99.90;;;;;;5091466;28;20034;-63
2021/01/23 08:50:18;;;;;;;7.45;3.15;;;2.10;99.90;;;;;;5092351;28;20099;-63
2021/01/23 08:52:44;;;;;;;5.13;3.30;;;2.10;99.90;;;;;;5089221;28;20143;-64
2021/01/23 08:55:10;;;;;;;4.57;3.25;;;2.10;99.90;;;;;;5094371;28;20028;-62
2021/01/23 08:57:36;;;;;;;5.07;2.83;;;2.20;99.90;;;;;;5092528;28;20028;-66
2021/01/23 09:00:09;;;;;;;4.40;2.80;;;2.30;99.90;;;;;;5092004;28;20067;-68
2021/01/23 09:02:35;;;;;;;4.03;3.00;;;2.30;99.90;;;;;;5089835;28;20043;-69
2021/01/23 09:05:00;;;;;;;3.22;2.63;;;2.40;99.90;;;;;;5090107;28;20024;-67
2021/01/23 09:07:26;;;;;;;3.72;2.53;;;2.50;99.90;;;;;;5091313;28;20032;-67
2021/01/23 09:09:53;;;;;;;4.82;2.92;;;2.50;99.90;;;;;;5090816;28;20669;-63
2021/01/23 09:12:19;;;;;;;4.15;2.78;;;2.60;99.90;;;;;;5090946;28;20044;-66
2021/01/23 09:14:45;;;;;;;3.80;2.20;;;2.70;99.90;;;;;;5092526;28;20046;-66
2021/01/23 09:17:11;;;;;;;3.95;2.35;;;2.80;99.90;;;;;;5091421;28;20456;-66
2021/01/23 09:19:37;;;;;;;4.82;2.78;;;2.90;99.90;;;;;;5092971;28;20543;-65
2021/01/23 09:22:03;;;;;;;4.65;2.53;;;2.90;99.90;;;;;;5090572;28;20112;-63
2021/01/23 09:24:29;;;;;;;3.63;2.50;;;3.00;99.90;;;;;;5090979;28;20042;-65
2021/01/23 09:26:55;;;;;;;5.55;2.63;;;3.10;99.90;;;;;;5089901;28;20457;-64
2021/01/23 09:29:21;;;;;;;4.38;2.42;;;3.20;99.90;;;;;;5090943;28;20027;-65
2021/01/23 09:31:47;;;;;;;6.38;1.90;;;3.30;99.90;;;;;;5091075;28;20060;-68
2021/01/23 09:34:14;;;;;;;3.45;2.17;;;3.40;99.90;;;;;;5091197;28;20056;-67
2021/01/23 09:36:41;;;;;;;3.25;2.15;;;3.80;99.90;;;;;;5092330;28;20061;-67
2021/01/23 09:39:07;;;;;;;2.88;1.80;;;3.80;99.90;;;;;;5092309;28;20097;-65
2021/01/23 09:41:33;;;;;;;2.33;1.98;;;3.80;99.90;;;;;;5091689;28;20481;-65
2021/01/23 09:43:59;;;;;;;3.50;2.15;;;3.80;97.50;;;;;;5091388;28;20074;-64
2021/01/23 09:46:25;;;;;;;3.67;2.20;;;3.70;98.40;;;;;;5091360;28;20020;-64
2021/01/23 09:48:50;;;;;;;7.03;2.55;;;3.70;99.30;;;;;;5091814;28;20571;-64
2021/01/23 09:51:16;;;;;;;4.00;1.92;;;3.70;98.30;;;;;;5093166;28;20035;-64
2021/01/23 09:53:42;;;;;;;3.67;2.03;;;3.70;99.90;;;;;;5090228;28;20028;-66
2021/01/23 09:56:07;;;;;;;3.08;2.50;;;3.70;99.30;;;;;;5092141;28;20028;-61
2021/01/23 09:58:33;;;;;;;2.00;1.80;;;3.80;99.10;;;;;;5091952;28;20467;-67
2021/01/23 10:00:59;;;;;;;3.00;2.30;;;3.90;99.90;;;;;;5091469;28;20063;-67
2021/01/23 10:03:25;;;;;;;2.47;1.65;;;3.90;99.50;;;;;;5090284;28;20097;-68
2021/01/23 10:05:51;;;;;;;3.17;1.70;;;4.00;98.70;;;;;;5089744;28;20028;-66
2021/01/23 10:08:16;;;;;;;3.35;2.00;;;4.00;98.00;;;;;;5092630;28;20052;-68
2021/01/23 10:10:42;;;;;;;2.50;1.63;;;4.10;96.80;;;;;;5090258;28;20111;-73
2021/01/23 10:13:08;;;;;;;2.33;1.90;;;4.20;97.00;;;;;;5090860;28;20036;-66
2021/01/23 10:15:33;;;;;;;3.05;2.00;;;4.30;97.30;;;;;;5090883;28;20475;-66
2021/01/23 10:18:00;;;;;;;3.42;1.95;;;4.30;94.80;;;;;;5089915;28;20521;-64
2021/01/23 10:20:27;;;;;;;2.45;1.90;;;4.40;94.10;;;;;;5092221;28;20016;-64
2021/01/23 10:22:53;;;;;;;1.98;1.77;;;4.40;94.90;;;;;;5099600;28;20036;-64
2021/01/23 10:25:19;;;;;;;3.10;2.42;;;4.40;95.20;;;;;;5099258;28;20104;-64
2021/01/23 10:27:45;;;;;;;3.33;2.33;;;4.50;94.70;;;;;;5108403;28;20031;-64
2021/01/23 10:30:11;;;;;;;3.17;2.10;;;4.40;96.70;;;;;;5101890;28;20037;-64
2021/01/23 10:32:37;;;;;;;6.40;2.42;;;4.40;98.40;;;;;;5094519;28;20055;-64
2021/01/23 10:35:03;;;;;;;2.53;2.10;;;4.40;98.70;;;;;;5111908;28;20023;-64
2021/01/23 10:37:29;;;;;;;4.80;2.17;;;4.40;94.40;;;;;;5113512;28;20055;-68
2021/01/23 10:39:54;;;;;;;5.72;2.28;;;4.50;94.00;;;;;;5104308;28;20060;-65
2021/01/23 10:42:20;;;;;;;3.00;1.85;;;4.40;96.50;;;;;;5101924;28;20225;-69
2021/01/23 10:44:46;;;;;;;3.88;1.95;;;4.30;96.00;;;;;;5111234;28;20443;-65
2021/01/23 10:47:12;;;;;;;3.38;2.20;;;4.30;97.30;;;;;;5095234;28;20103;-66
2021/01/23 10:49:38;;;;;;;4.40;2.00;;;4.30;96.80;;;;;;5094119;28;20105;-70
2021/01/23 10:52:04;;;;;;;4.13;2.00;;;4.30;95.80;;;;;;5093444;28;20043;-68
2021/01/23 10:54:29;;;;;;;2.75;2.15;;;4.30;96.20;;;;;;5092024;28;20032;-72
2021/01/23 10:56:55;;;;;;;2.78;1.60;;;4.30;96.80;;;;;;5094737;28;20028;-69
2021/01/23 10:59:21;;;;;;;4.78;1.80;;;4.40;97.00;;;;;;5093693;28;20020;-68
2021/01/23 11:01:48;;;;;;;3.25;2.00;;;4.40;96.90;;;;;;5090524;28;20036;-63
2021/01/23 11:04:14;;;;;;;3.60;1.80;;;4.50;95.70;;;;;;5097976;28;20101;-63
2021/01/23 11:06:40;;;;;;;3.13;1.73;;;4.50;96.20;;;;;;5095780;28;20020;-64
2021/01/23 11:09:05;;;;;;;3.25;2.05;;;4.60;94.20;;;;;;5093747;28;20032;-64
2021/01/23 11:11:32;;;;;;;4.65;2.53;;;4.60;93.80;;;;;;5094183;28;20036;-65
2021/01/23 11:13:58;;;;;;;7.15;2.70;;;4.60;94.30;;;;;;5095305;28;20036;-63
2021/01/23 11:16:24;;;;;;;3.92;2.28;;;4.60;95.20;;;;;;5092882;28;20081;-64
2021/01/23 11:18:49;;;;;;;3.90;2.25;;;4.60;95.60;;;;;;5091844;28;20024;-63
2021/01/23 11:21:15;;;;;;;4.55;2.42;;;4.60;95.20;;;;;;5093678;28;20024;-66
2021/01/23 11:23:41;;;;;;;3.80;2.17;;;4.60;95.10;;;;;;5096657;28;20028;-67
2021/01/23 11:26:07;;;;;;;2.20;1.88;;;4.70;93.50;;;;;;5092671;28;20024;-66
2021/01/23 11:28:32;;;;;;;4.50;2.08;;;4.80;94.20;;;;;;5093212;28;20028;-69
2021/01/23 11:30:58;;;;;;;5.75;2.30;;;4.70;95.30;;;;;;5092832;28;20040;-66
2021/01/23 11:33:24;;;;;;;3.13;2.22;;;4.70;94.90;;;;;;5093316;28;20114;-65
2021/01/23 11:35:50;;;;;;;4.68;2.05;;;4.80;94.40;;;;;;5107627;28;20023;-67
2021/01/23 11:38:16;;;;;;;2.83;1.77;;;4.80;96.80;;;;;;5112718;28;20028;-63
2021/01/23 11:40:42;;;;;;;4.38;2.08;;;4.70;95.70;;;;;;5102181;28;20039;-63
2021/01/23 11:43:09;;;;;;;3.50;2.00;;;4.80;94.00;;;;;;5094226;28;20111;-64
2021/01/23 11:45:35;;;;;;;3.80;2.10;;;4.80;94.70;;;;;;5088362;28;20028;-64
2021/01/23 11:48:01;;;;;;;2.78;2.03;;;4.80;94.50;;;;;;5096256;28;20039;-65
2021/01/23 11:50:27;;;;;;;2.78;2.30;;;4.80;93.80;;;;;;5093432;28;20449;-64
2021/01/23 11:52:53;;;;;;;4.55;2.65;;;4.80;95.40;;;;;;5095296;28;20783;-62
2021/01/23 11:55:18;;;;;;;3.92;1.90;;;4.80;94.60;;;;;;5093574;28;20020;-65
2021/01/23 11:57:44;;;;;;;3.58;1.98;;;4.80;94.90;;;;;;5097087;28;20472;-66
2021/01/23 12:00:11;;;;;;;2.78;1.85;;;4.80;95.20;;;;;;5102309;28;20376;-67
2021/01/23 12:02:37;;;;;;;2.28;2.08;;;4.80;95.40;;;;;;5113349;28;20032;-71
2021/01/23 12:05:03;;;;;;;6.38;1.80;;;4.90;94.30;;;;;;5115430;28;20030;-68
2021/01/23 12:07:29;;;;;;;3.80;2.00;;;4.90;94.90;;;;;;5093884;28;20099;-67
2021/01/23 12:09:55;;;;;;;4.93;2.55;;;5.00;95.00;;;;;;5092599;28;20536;-68
2021/01/23 12:12:20;;;;;;;2.38;1.50;;;5.00;94.00;;;;;;5105234;28;20032;-69
2021/01/23 12:14:46;;;;;;;5.38;1.75;;;5.00;93.30;;;;;;5111104;28;20028;-69
2021/01/23 12:17:11;;;;;;;2.28;1.60;;;5.10;91.50;;;;;;5104689;28;20058;-70
2021/01/23 12:19:37;;;;;;;4.78;1.70;;;5.10;91.00;;;;;;5112779;28;20038;-67
2021/01/23 12:22:04;;;;;;;2.88;1.23;;;5.10;91.80;;;;;;5112592;28;20028;-66
2021/01/23 12:24:32;;;;;;;3.47;1.80;;;5.10;90.60;;;;;;5101643;28;20107;-67
2021/01/23 12:26:59;;;;;;;3.92;1.55;;;5.10;90.50;;;;;;5091493;28;20036;-66
2021/01/23 12:29:24;;;;;;;5.65;1.73;;;5.10;90.50;;;;;;5091896;28;20465;-66
2021/01/23 12:31:50;;;;;;;2.05;1.60;;;5.10;91.00;;;;;;5109137;28;20048;-68
2021/01/23 12:34:16;;;;;;;2.45;1.77;;;5.10;90.40;;;;;;5093211;28;20019;-72
2021/01/23 12:36:42;;;;;;;6.00;1.77;;;5.20;89.50;;;;;;5090339;28;20027;-70
2021/01/23 12:39:07;;;;;;;5.15;2.28;;;5.20;90.10;;;;;;5091799;28;20503;-72
2021/01/23 12:41:33;;;;;;;8.40;2.42;;;5.10;88.50;;;;;;5106413;28;20035;-72
2021/01/23 12:43:58;;;;;;;4.43;1.90;;;5.10;90.20;;;;;;5105661;28;20038;-69
2021/01/23 12:46:24;;;;;;;5.38;1.60;;;5.20;90.00;;;;;;5109318;28;20035;-70
2021/01/23 12:48:51;;;;;;;7.85;2.05;;;5.20;90.90;;;;;;5100369;28;20035;-67
2021/01/23 12:51:17;;;;;;;3.30;1.70;;;5.20;91.10;;;;;;5104883;28;20068;-71
2021/01/23 12:53:44;;;;;;;3.38;1.77;;;5.30;91.40;;;;;;5110308;28;20027;-67
2021/01/23 12:56:10;;;;;;;6.75;1.60;;;5.30;90.20;;;;;;5112566;28;20023;-71
2021/01/23 12:58:35;;;;;;;2.10;1.20;;;5.30;87.30;;;;;;5111656;28;20520;-68
2021/01/23 13:01:01;;;;;;;3.47;1.70;;;5.30;88.60;;;;;;5101398;28;20040;-69